createdAt,value
2023-03-22T00:00:59.268Z,4.70
2023-03-22T00:05:31.067Z,4.62
2023-03-22T00:09:54.913Z,4.65
2023-03-22T00:14:18.887Z,4.67
2023-03-22T00:18:49.012Z,4.63
2023-03-22T00:23:12.872Z,4.51
2023-03-22T00:27:42.030Z,4.44
2023-03-22T00:32:11.718Z,4.39
2023-03-22T00:36:35.682Z,4.36
2023-03-22T00:41:00.604Z,4.36
2023-03-22T00:45:26.600Z,4.40
2023-03-22T00:49:56.202Z,4.37
2023-03-22T00:54:20.214Z,4.29
2023-03-22T00:58:45.223Z,4.17
2023-03-22T01:03:09.340Z,4.13
2023-03-22T01:07:33.332Z,4.15
2023-03-22T01:11:56.274Z,4.22
2023-03-22T01:16:20.199Z,4.21
2023-03-22T01:20:44.229Z,4.20
2023-03-22T01:25:01.470Z,4.14
2023-03-22T01:29:25.305Z,4.03
2023-03-22T01:33:49.227Z,3.96
2023-03-22T01:38:13.131Z,3.86
2023-03-22T01:42:36.737Z,3.77
2023-03-22T01:47:02.721Z,3.68
2023-03-22T01:51:26.627Z,3.60
2023-03-22T01:55:51.829Z,3.59
2023-03-22T02:00:17.763Z,3.65
2023-03-22T02:04:59.996Z,3.55
2023-03-22T02:09:17.039Z,3.53
2023-03-22T02:13:56.011Z,3.61
2023-03-22T02:18:40.803Z,3.72
2023-03-22T02:22:53.865Z,3.70
2023-03-22T02:27:54.332Z,3.70
2023-03-22T02:32:24.995Z,3.75
2023-03-22T02:36:52.095Z,3.81
2023-03-22T02:41:16.127Z,3.83
2023-03-22T02:45:53.987Z,3.81
2023-03-22T02:50:23.568Z,3.66
2023-03-22T02:55:01.516Z,3.66
2023-03-22T02:59:27.854Z,3.57
2023-03-22T03:03:51.785Z,3.63
2023-03-22T03:08:15.727Z,3.63
2023-03-22T03:12:39.606Z,3.67
2023-03-22T03:16:58.151Z,3.71
2023-03-22T03:21:24.819Z,3.75
2023-03-22T03:25:50.053Z,3.59
2023-03-22T03:30:38.807Z,3.45
2023-03-22T03:35:14.759Z,3.39
2023-03-22T03:39:20.295Z,3.15
2023-03-22T03:43:47.251Z,3.05
2023-03-22T03:48:18.511Z,2.95
2023-03-22T03:52:48.452Z,2.99
2023-03-22T03:57:12.370Z,3.08
2023-03-22T04:01:47.644Z,3.05
2023-03-22T04:06:13.126Z,3.11
2023-03-22T04:10:38.186Z,3.08
2023-03-22T04:15:06.296Z,2.99
2023-03-22T04:19:37.360Z,3.00
2023-03-22T04:24:00.649Z,2.99
2023-03-22T04:28:25.652Z,2.98
2023-03-22T04:32:50.532Z,3.01
2023-03-22T04:37:28.389Z,3.02
2023-03-22T04:41:53.352Z,2.92
2023-03-22T04:46:20.425Z,2.88
2023-03-22T04:50:44.773Z,2.93
2023-03-22T04:55:10.628Z,2.99
2023-03-22T04:59:36.600Z,3.14
2023-03-22T05:04:00.566Z,3.20
2023-03-22T05:08:29.651Z,3.22
2023-03-22T05:12:53.575Z,3.31
2023-03-22T05:17:23.648Z,3.46
2023-03-22T05:21:48.608Z,3.59
2023-03-22T05:26:05.094Z,3.59
2023-03-22T05:30:29.098Z,3.61
2023-03-22T05:34:52.766Z,3.70
2023-03-22T05:39:16.527Z,3.80
2023-03-22T05:43:40.439Z,3.95
2023-03-22T05:48:04.396Z,4.17
2023-03-22T05:52:29.311Z,4.39
2023-03-22T05:56:55.329Z,4.52
2023-03-22T06:01:21.274Z,4.72
2023-03-22T06:05:46.414Z,4.86
2023-03-22T06:10:01.526Z,5.02
2023-03-22T06:14:34.128Z,5.23
2023-03-22T06:18:58.040Z,5.52
2023-03-22T06:23:22.024Z,5.83
2023-03-22T06:27:46.022Z,6.14
2023-03-22T06:32:09.908Z,6.43
2023-03-22T06:36:36.056Z,6.69
2023-03-22T06:41:00.866Z,6.84
2023-03-22T06:45:14.654Z,7.06
2023-03-22T06:49:38.586Z,7.36
2023-03-22T06:53:57.338Z,7.82
2023-03-22T06:58:21.143Z,8.31
2023-03-22T07:02:44.780Z,8.77
2023-03-22T07:07:14.661Z,9.20
2023-03-22T07:11:38.615Z,9.44
2023-03-22T07:16:05.735Z,9.64
2023-03-22T07:20:23.479Z,9.81
2023-03-22T07:24:56.702Z,10.08
2023-03-22T07:29:26.740Z,10.37
2023-03-22T07:33:54.226Z,10.69
2023-03-22T07:38:24.952Z,10.94
2023-03-22T07:42:49.209Z,11.09
2023-03-22T07:47:39.628Z,11.30
2023-03-22T07:52:10.320Z,11.42
2023-03-22T07:56:46.292Z,11.68
2023-03-22T08:01:12.188Z,11.82
2023-03-22T08:05:44.335Z,11.89
2023-03-22T08:10:07.705Z,11.81
2023-03-22T08:14:36.615Z,11.81
2023-03-22T08:19:01.169Z,11.87
2023-03-22T08:23:38.487Z,12.02
2023-03-22T08:28:12.654Z,12.08
2023-03-22T08:32:44.256Z,12.07
2023-03-22T08:37:08.308Z,12.10
2023-03-22T08:41:33.170Z,12.14
2023-03-22T08:45:58.600Z,12.29
2023-03-22T08:50:22.513Z,12.36
2023-03-22T08:54:50.536Z,12.62
2023-03-22T08:59:13.123Z,12.82
2023-03-22T09:03:27.099Z,13.07
2023-03-22T09:07:51.014Z,13.36
2023-03-22T09:12:03.489Z,13.43
2023-03-22T09:16:27.299Z,13.63
2023-03-22T09:20:51.282Z,13.94
2023-03-22T09:25:16.245Z,14.21
2023-03-22T09:29:42.271Z,14.21
2023-03-22T09:34:06.104Z,14.30
2023-03-22T09:38:17.536Z,14.30
2023-03-22T09:42:44.490Z,14.26
2023-03-22T09:47:12.088Z,14.31
2023-03-22T09:51:35.894Z,14.37
2023-03-22T09:56:00.792Z,14.35
2023-03-22T10:00:37.757Z,14.40
2023-03-22T10:05:23.254Z,14.48
2023-03-22T10:09:43.311Z,14.59
2023-03-22T10:14:15.057Z,14.66
2023-03-22T10:18:39.095Z,14.96
2023-03-22T10:23:02.942Z,15.00
2023-03-22T10:27:38.007Z,14.95
2023-03-22T10:32:01.647Z,14.68
2023-03-22T10:36:18.862Z,14.52
2023-03-22T10:40:34.895Z,14.47
2023-03-22T10:44:54.101Z,14.51
2023-03-22T10:49:33.135Z,14.47
2023-03-22T10:54:09.669Z,14.46
2023-03-22T10:58:32.896Z,14.46
2023-03-22T11:03:02.389Z,14.51
2023-03-22T11:07:28.365Z,14.61
2023-03-22T11:12:07.383Z,14.64
2023-03-22T11:16:39.743Z,14.66
2023-03-22T11:21:05.825Z,14.69
2023-03-22T11:25:30.947Z,14.77
2023-03-22T11:30:03.915Z,14.82
2023-03-22T11:34:41.668Z,14.85
2023-03-22T11:39:17.415Z,14.89
2023-03-22T11:43:58.764Z,14.81
2023-03-22T11:48:24.851Z,14.87
2023-03-22T11:52:32.027Z,14.97
2023-03-22T11:56:56.921Z,15.01
2023-03-22T12:01:23.124Z,15.02
2023-03-22T12:05:47.149Z,15.08
2023-03-22T12:10:16.726Z,15.14
2023-03-22T12:14:40.811Z,15.27
2023-03-22T12:19:28.104Z,15.35
2023-03-22T12:24:04.724Z,15.41
2023-03-22T12:33:39.738Z,15.27
2023-03-22T12:38:09.462Z,15.23
2023-03-22T12:42:34.930Z,15.21
2023-03-22T12:47:02.575Z,15.22
2023-03-22T12:51:39.345Z,15.24
2023-03-22T12:56:15.877Z,15.29
2023-03-22T13:00:45.144Z,15.36
2023-03-22T13:05:31.414Z,15.38
2023-03-22T13:10:10.529Z,15.41
2023-03-22T13:14:38.382Z,15.40
2023-03-22T13:19:13.173Z,15.27
2023-03-22T13:23:38.138Z,15.25
2023-03-22T13:28:02.019Z,15.28
2023-03-22T13:32:22.066Z,15.31
2023-03-22T13:37:07.885Z,15.32
2023-03-22T13:41:35.528Z,15.33
2023-03-22T13:46:12.284Z,15.32
2023-03-22T13:50:48.918Z,15.19
2023-03-22T13:55:44.888Z,15.14
2023-03-22T14:00:15.118Z,15.15
2023-03-22T14:04:50.691Z,15.22
2023-03-22T14:09:17.345Z,15.24
2023-03-22T14:13:52.026Z,15.21
2023-03-22T14:18:36.980Z,15.19
